createdAt,value
2023-02-17T00:00:44.919Z,25.6
2023-02-17T00:06:25.037Z,23.8
2023-02-17T00:11:46.943Z,24.1
2023-02-17T00:17:24.377Z,23.4
2023-02-17T00:22:47.013Z,24
2023-02-17T00:28:23.606Z,25.6
2023-02-17T00:34:01.194Z,23.1
2023-02-17T00:39:39.194Z,25.2
2023-02-17T00:45:15.074Z,26.5
2023-02-17T00:50:53.001Z,23.9
2023-02-17T00:56:31.491Z,24.1
2023-02-17T01:01:52.549Z,23.7
2023-02-17T01:07:29.344Z,23.6
2023-02-17T01:12:52.302Z,24.8
2023-02-17T01:18:29.197Z,26.1
2023-02-17T01:24:05.292Z,24.9
2023-02-17T01:29:43.614Z,23.8
2023-02-17T01:35:06.230Z,24.1
2023-02-17T01:40:43.501Z,23.4
2023-02-17T01:46:05.742Z,24
2023-02-17T01:51:26.887Z,25.4
2023-02-17T01:57:03.926Z,26.4
2023-02-17T02:02:42.618Z,24
2023-02-17T02:08:19.744Z,23.6
2023-02-17T02:13:56.603Z,23.8
2023-02-17T02:19:34.417Z,23.4
2023-02-17T02:25:10.633Z,24.6
2023-02-17T02:30:48.462Z,26
2023-02-17T02:36:26.621Z,25.8
2023-02-17T02:42:03.417Z,23.8
2023-02-17T02:47:25.250Z,24.1
2023-02-17T02:52:32.156Z,23.4
2023-02-17T02:57:53.335Z,23.8
2023-02-17T03:03:29.861Z,25.1
2023-02-17T03:09:07.799Z,22.2
2023-02-17T03:14:43.607Z,24.4
2023-02-17T03:20:20.774Z,25.9
2023-02-17T03:25:58.922Z,25.3
2023-02-17T03:31:36.023Z,23.8
2023-02-17T03:36:58.348Z,24.1
2023-02-17T03:42:36.328Z,23.4
2023-02-17T03:48:12.068Z,24.1
2023-02-17T03:53:33.641Z,25.6
2023-02-17T03:59:11.997Z,26.6
2023-02-17T04:04:48.717Z,23.9
2023-02-17T04:10:26.399Z,24.2
2023-02-17T04:16:04.535Z,23.6
2023-02-17T04:21:40.702Z,23.6
2023-02-17T04:27:02.327Z,25.1
2023-02-17T04:32:28.385Z,26.3
2023-02-17T04:38:08.526Z,24.4
2023-02-17T04:43:46.398Z,23.7
2023-02-17T04:49:24.990Z,23.9
2023-02-17T04:55:00.669Z,23.2
2023-02-17T05:00:22.553Z,24.5
2023-02-17T05:06:00.659Z,25.9
2023-02-17T05:11:37.868Z,26.8
2023-02-17T05:17:16.663Z,23.8
2023-02-17T05:22:54.113Z,24.2
2023-02-17T05:28:32.043Z,23.5
2023-02-17T05:33:54.339Z,23.8
2023-02-17T05:39:32.375Z,25.1
2023-02-17T05:45:09.934Z,22.1
2023-02-17T05:50:47.270Z,24.4
2023-02-17T05:56:25.363Z,25.9
2023-02-17T06:02:02.762Z,24.8
2023-02-17T06:07:40.389Z,23.6
2023-02-17T06:13:02.612Z,23.9
2023-02-17T06:18:41.770Z,23.3
2023-02-17T06:24:18.935Z,24.1
2023-02-17T06:29:42.698Z,25.6
2023-02-17T06:35:19.541Z,26.7
2023-02-17T06:40:56.867Z,23.6
2023-02-17T06:46:34.663Z,23.9
2023-02-17T06:52:11.966Z,23.4
2023-02-17T06:57:48.742Z,23.6
2023-02-17T07:03:28.408Z,25.1
2023-02-17T07:09:05.423Z,26.5
2023-02-17T07:14:27.014Z,23.8
2023-02-17T07:19:50.065Z,23.9
2023-02-17T07:25:27.792Z,23.7
2023-02-17T07:30:49.928Z,23.6
2023-02-17T07:36:12.293Z,24.8
2023-02-17T07:41:51.374Z,26.4
2023-02-17T07:47:30.335Z,23.7
2023-02-17T07:53:07.953Z,23.6
2023-02-17T07:58:45.150Z,23.6
2023-02-17T08:04:22.409Z,23.5
2023-02-17T08:10:00.181Z,25
2023-02-17T08:15:39.322Z,26.8
2023-02-17T08:21:16.340Z,23.4
2023-02-17T08:26:54.475Z,24.6
2023-02-17T08:32:32.505Z,26.2
2023-02-17T08:38:09.477Z,23.7
2023-02-17T08:43:30.977Z,23.3
2023-02-17T08:49:10.510Z,24.3
2023-02-17T08:54:50.002Z,26.1
2023-02-17T09:00:23.235Z,23.6
2023-02-17T09:05:45.389Z,23.3
2023-02-17T09:11:09.599Z,24
2023-02-17T09:16:47.733Z,25.9
2023-02-17T09:22:48.182Z,23.7
2023-02-17T09:28:09.767Z,23.3
2023-02-17T09:33:33.748Z,24.4
2023-02-17T09:38:55.581Z,26.5
2023-02-17T09:44:34.985Z,23.4
2023-02-17T09:50:06.759Z,23.2
2023-02-17T09:55:44.575Z,24.8
2023-02-17T10:01:09.136Z,24.4
2023-02-17T10:06:50.493Z,23.3
2023-02-17T10:12:12.633Z,23
2023-02-17T10:17:36.260Z,22.5
2023-02-17T10:23:14.417Z,22
2023-02-17T10:28:52.151Z,24.9
2023-02-17T10:34:33.351Z,23.3
2023-02-17T10:39:56.002Z,22.9
2023-02-17T10:45:05.916Z,22.5
2023-02-17T10:50:31.472Z,22
2023-02-17T10:56:07.956Z,23.1
2023-02-17T11:01:30.603Z,25.7
2023-02-17T11:06:36.668Z,23.2
2023-02-17T11:11:58.350Z,22.9
2023-02-17T11:17:38.751Z,22.4
2023-02-17T11:23:19.559Z,21.9
2023-02-17T11:28:41.756Z,23.4
2023-02-17T11:34:19.972Z,25.4
2023-02-17T11:39:58.456Z,23.1
2023-02-17T11:45:19.596Z,22.8
2023-02-17T11:50:56.922Z,22.3
2023-02-17T11:56:34.090Z,21.8
2023-02-17T12:02:11.434Z,23.8
2023-02-17T12:07:49.284Z,23.9
2023-02-17T12:13:10.906Z,22.9
2023-02-17T12:18:33.684Z,22.6
2023-02-17T12:23:39.158Z,22.2
2023-02-17T12:29:18.286Z,21.8
2023-02-17T12:34:41.578Z,23.4
2023-02-17T12:40:02.899Z,25.5
2023-02-17T12:45:25.055Z,22.9
2023-02-17T12:50:48.502Z,22.6
2023-02-17T12:56:11.859Z,22.3
2023-02-17T13:01:34.262Z,21.9
2023-02-17T13:06:56.904Z,23.6
2023-02-17T13:12:17.880Z,24.8
2023-02-17T13:17:24.542Z,22.9
2023-02-17T13:22:46.843Z,22.7
2023-02-17T13:28:08.228Z,22.3
2023-02-17T13:33:30.156Z,21.9
2023-02-17T13:38:53.430Z,21.6
2023-02-17T13:44:16.892Z,24.6
2023-02-17T13:49:39.332Z,23.2
2023-02-17T13:55:18.846Z,22.8
2023-02-17T14:00:39.779Z,22.5
2023-02-17T14:06:12.018Z,24.6
2023-02-17T14:11:34.697Z,23.3
2023-02-17T14:16:56.625Z,22.9
2023-02-17T14:22:36.424Z,22.6
2023-02-17T14:28:24.338Z,22.2
2023-02-17T14:34:01.571Z,21.8
2023-02-17T14:39:38.522Z,21.4
2023-02-17T14:45:17.067Z,21
2023-02-17T14:50:55.775Z,20.6
2023-02-17T14:56:17.488Z,20.2
2023-02-17T15:01:54.836Z,19.8
2023-02-17T15:07:36.848Z,19.4
2023-02-17T15:13:13.502Z,19.1
2023-02-17T15:18:51.376Z,18.8
2023-02-17T15:24:31.871Z,18.4
2023-02-17T15:30:10.628Z,18.1
2023-02-17T15:35:50.857Z,17.8
2023-02-17T15:41:31.225Z,17.4
2023-02-17T15:46:55.199Z,17.2
2023-02-17T15:52:18.599Z,16.9
2023-02-17T15:57:56.196Z,16.7
2023-02-17T16:03:34.507Z,16.4
2023-02-17T16:09:13.005Z,16.2
2023-02-17T16:14:50.021Z,16
2023-02-17T16:20:27.105Z,15.8
2023-02-17T16:25:50.083Z,15.6
2023-02-17T16:31:28.787Z,15.4
2023-02-17T16:36:36.241Z,15.3
2023-02-17T16:42:16.132Z,15.1
2023-02-17T16:47:54.653Z,14.9
2023-02-17T16:53:34.363Z,18.6
2023-02-17T16:59:12.928Z,22.8
2023-02-17T17:04:51.541Z,25.1
2023-02-17T17:10:49.094Z,22.6
2023-02-17T17:16:11.213Z,23.8
2023-02-17T17:21:48.717Z,25.1
2023-02-17T17:27:25.604Z,22.8
2023-02-17T17:32:49.255Z,22.5
2023-02-17T17:38:13.497Z,22.1
2023-02-17T17:43:35.340Z,21.8
2023-02-17T17:48:39.817Z,22.9
2023-02-17T17:54:19.643Z,24.8
2023-02-17T17:59:56.803Z,22.6
2023-02-17T18:05:37.920Z,22.3
2023-02-17T18:11:12.402Z,24.3
2023-02-17T18:16:50.005Z,23.8
2023-02-17T18:22:27.726Z,22.6
2023-02-17T18:28:08.658Z,22.3
2023-02-17T18:33:47.427Z,24.1
2023-02-17T18:39:25.931Z,24.1
2023-02-17T18:45:02.742Z,22.5
2023-02-17T18:50:24.286Z,22.6
2023-02-17T18:55:46.391Z,24.4
2023-02-17T19:01:23.261Z,23.4
2023-02-17T19:07:00.408Z,22.6
2023-02-17T19:12:37.391Z,22.4
2023-02-17T19:18:14.309Z,23.5
2023-02-17T19:23:50.896Z,25.3
2023-02-17T19:29:28.474Z,22.8
2023-02-17T19:35:06.461Z,22.6
2023-02-17T19:40:43.153Z,23.4
2023-02-17T19:46:08.343Z,25
2023-02-17T19:51:45.067Z,23.4
2023-02-17T19:57:22.556Z,23
2023-02-17T20:02:44.217Z,22.6
2023-02-17T20:08:21.978Z,22.2
2023-02-17T20:14:02.828Z,22.7
2023-02-17T20:19:39.570Z,24.3
2023-02-17T20:25:17.768Z,23.9
2023-02-17T20:30:39.101Z,23.1
2023-02-17T20:36:18.014Z,22.8
2023-02-17T20:41:55.605Z,22.3
2023-02-17T20:47:18.553Z,22.6
2023-02-17T20:52:56.864Z,24.1
2023-02-17T20:58:34.207Z,25.2
2023-02-17T21:04:12.575Z,23.2
2023-02-17T21:09:50.260Z,23.5
2023-02-17T21:15:27.071Z,22.8
2023-02-17T21:21:04.166Z,23.9
2023-02-17T21:26:41.915Z,23.9
2023-02-17T21:32:19.761Z,24.9
2023-02-17T21:37:56.280Z,26.3
2023-02-17T21:43:19.989Z,23.8
2023-02-17T21:48:42.596Z,23.3
2023-02-17T21:54:04.203Z,23.8
2023-02-17T21:59:42.449Z,23.1
2023-02-17T22:05:03.464Z,22.9
2023-02-17T22:10:39.499Z,23.3
2023-02-17T22:16:00.318Z,24.9
2023-02-17T22:21:37.449Z,26.3
2023-02-17T22:27:14.480Z,23.9
2023-02-17T22:32:53.282Z,23.3
2023-02-17T22:38:29.609Z,24.8
2023-02-17T22:44:05.767Z,26.2
2023-02-17T22:49:43.512Z,24.4
2023-02-17T22:55:21.399Z,23.6
2023-02-17T23:00:42.709Z,23.9
2023-02-17T23:06:23.366Z,23.3
2023-02-17T23:11:45.697Z,23.1
2023-02-17T23:17:22.939Z,23.1
2023-02-17T23:23:00.450Z,24.8
2023-02-17T23:28:38.103Z,26.1
2023-02-17T23:34:15.300Z,24.6
2023-02-17T23:39:36.866Z,23.5
2023-02-17T23:45:15.297Z,23.9
2023-02-17T23:50:53.310Z,23.3
2023-02-17T23:56:30.852Z,24
